sensor_id;sensor_type;location;lat;lon;timestamp;temperature;humidity
37874;DHT22;23709;48.078;11.684;2024-03-07T00:00:34;3.90;99.90
37874;DHT22;23709;48.078;11.684;2024-03-07T00:03:06;3.80;99.90
37874;DHT22;23709;48.078;11.684;2024-03-07T00:05:38;3.80;99.90
37874;DHT22;23709;48.078;11.684;2024-03-07T00:08:12;3.70;99.90
37874;DHT22;23709;48.078;11.684;2024-03-07T00:10:45;3.70;99.90
37874;DHT22;23709;48.078;11.684;2024-03-07T00:13:17;3.80;99.90
37874;DHT22;23709;48.078;11.684;2024-03-07T00:15:49;3.80;99.90
37874;DHT22;23709;48.078;11.684;2024-03-07T00:18:22;3.80;99.90
37874;DHT22;23709;48.078;11.684;2024-03-07T00:20:55;3.80;99.90
37874;DHT22;23709;48.078;11.684;2024-03-07T00:23:28;3.80;99.90
37874;DHT22;23709;48.078;11.684;2024-03-07T00:26:00;3.70;99.90
37874;DHT22;23709;48.078;11.684;2024-03-07T00:28:32;3.70;99.90
37874;DHT22;23709;48.078;11.684;2024-03-07T00:31:11;3.70;99.90
37874;DHT22;23709;48.078;11.684;2024-03-07T00:33:44;3.70;99.90
37874;DHT22;23709;48.078;11.684;2024-03-07T00:36:36;3.70;99.90
37874;DHT22;23709;48.078;11.684;2024-03-07T00:39:10;3.60;99.90
37874;DHT22;23709;48.078;11.684;2024-03-07T00:41:46;3.70;99.90
37874;DHT22;23709;48.078;11.684;2024-03-07T00:44:18;3.70;99.90
37874;DHT22;23709;48.078;11.684;2024-03-07T00:46:50;3.60;99.90
37874;DHT22;23709;48.078;11.684;2024-03-07T00:49:23;3.60;99.90
37874;DHT22;23709;48.078;11.684;2024-03-07T00:51:56;3.50;99.90
37874;DHT22;23709;48.078;11.684;2024-03-07T00:54:28;3.60;99.90
37874;DHT22;23709;48.078;11.684;2024-03-07T00:57:00;3.60;99.90
37874;DHT22;23709;48.078;11.684;2024-03-07T00:59:32;3.60;99.90
37874;DHT22;23709;48.078;11.684;2024-03-07T01:02:05;3.60;99.90
37874;DHT22;23709;48.078;11.684;2024-03-07T01:04:37;3.60;99.90
37874;DHT22;23709;48.078;11.684;2024-03-07T01:07:10;3.60;99.90
37874;DHT22;23709;48.078;11.684;2024-03-07T01:09:42;3.50;99.90
37874;DHT22;23709;48.078;11.684;2024-03-07T01:12:15;3.50;99.90
37874;DHT22;23709;48.078;11.684;2024-03-07T01:14:51;3.50;99.90
37874;DHT22;23709;48.078;11.684;2024-03-07T01:17:24;3.60;99.90
37874;DHT22;23709;48.078;11.684;2024-03-07T01:19:59;3.60;99.90
37874;DHT22;23709;48.078;11.684;2024-03-07T01:22:32;3.60;99.90
37874;DHT22;23709;48.078;11.684;2024-03-07T01:25:04;3.60;99.90
37874;DHT22;23709;48.078;11.684;2024-03-07T01:27:41;3.50;99.90
37874;DHT22;23709;48.078;11.684;2024-03-07T01:30:13;3.50;99.90
37874;DHT22;23709;48.078;11.684;2024-03-07T01:32:48;3.50;99.90
37874;DHT22;23709;48.078;11.684;2024-03-07T01:35:24;3.50;99.90
37874;DHT22;23709;48.078;11.684;2024-03-07T01:37:57;3.50;99.90
37874;DHT22;23709;48.078;11.684;2024-03-07T01:40:29;3.50;99.90
37874;DHT22;23709;48.078;11.684;2024-03-07T01:43:04;3.50;99.90
37874;DHT22;23709;48.078;11.684;2024-03-07T01:45:38;3.60;99.90
37874;DHT22;23709;48.078;11.684;2024-03-07T01:48:12;3.60;99.90
37874;DHT22;23709;48.078;11.684;2024-03-07T01:50:49;3.60;99.90
37874;DHT22;23709;48.078;11.684;2024-03-07T01:53:22;3.60;99.90
37874;DHT22;23709;48.078;11.684;2024-03-07T01:55:55;3.70;99.90
37874;DHT22;23709;48.078;11.684;2024-03-07T01:58:29;3.70;99.90
37874;DHT22;23709;48.078;11.684;2024-03-07T02:01:03;3.80;99.90
37874;DHT22;23709;48.078;11.684;2024-03-07T02:03:35;3.80;99.90
37874;DHT22;23709;48.078;11.684;2024-03-07T02:06:08;3.80;99.90
37874;DHT22;23709;48.078;11.684;2024-03-07T02:08:41;3.70;99.90
37874;DHT22;23709;48.078;11.684;2024-03-07T02:11:13;3.70;99.90
37874;DHT22;23709;48.078;11.684;2024-03-07T02:13:45;3.80;99.90
37874;DHT22;23709;48.078;11.684;2024-03-07T02:16:18;3.70;99.90
37874;DHT22;23709;48.078;11.684;2024-03-07T02:18:52;3.80;99.90
37874;DHT22;23709;48.078;11.684;2024-03-07T02:21:24;3.90;99.90
37874;DHT22;23709;48.078;11.684;2024-03-07T02:23:57;3.90;99.90
37874;DHT22;23709;48.078;11.684;2024-03-07T02:26:30;3.80;99.90
37874;DHT22;23709;48.078;11.684;2024-03-07T02:29:02;3.80;99.90
37874;DHT22;23709;48.078;11.684;2024-03-07T02:31:35;3.80;99.90
37874;DHT22;23709;48.078;11.684;2024-03-07T02:34:09;3.80;99.90
37874;DHT22;23709;48.078;11.684;2024-03-07T02:36:41;3.80;99.90
37874;DHT22;23709;48.078;11.684;2024-03-07T02:39:16;3.80;99.90
37874;DHT22;23709;48.078;11.684;2024-03-07T02:41:49;3.80;99.90
37874;DHT22;23709;48.078;11.684;2024-03-07T02:44:21;3.80;99.90
37874;DHT22;23709;48.078;11.684;2024-03-07T02:46:54;3.90;99.90
37874;DHT22;23709;48.078;11.684;2024-03-07T02:49:26;3.90;99.90
37874;DHT22;23709;48.078;11.684;2024-03-07T02:51:59;3.90;99.90
37874;DHT22;23709;48.078;11.684;2024-03-07T02:54:31;3.80;99.90
37874;DHT22;23709;48.078;11.684;2024-03-07T02:57:05;3.90;99.90
37874;DHT22;23709;48.078;11.684;2024-03-07T02:59:37;3.80;99.90
37874;DHT22;23709;48.078;11.684;2024-03-07T03:02:11;3.80;99.90
37874;DHT22;23709;48.078;11.684;2024-03-07T03:04:43;3.90;99.90
37874;DHT22;23709;48.078;11.684;2024-03-07T03:07:15;3.90;99.90
37874;DHT22;23709;48.078;11.684;2024-03-07T03:09:48;3.80;99.90
37874;DHT22;23709;48.078;11.684;2024-03-07T03:12:21;3.80;99.90
37874;DHT22;23709;48.078;11.684;2024-03-07T03:14:54;3.80;99.90
37874;DHT22;23709;48.078;11.684;2024-03-07T03:17:27;3.80;99.90
37874;DHT22;23709;48.078;11.684;2024-03-07T03:19:59;3.80;99.90
37874;DHT22;23709;48.078;11.684;2024-03-07T03:22:32;3.80;99.90
37874;DHT22;23709;48.078;11.684;2024-03-07T03:25:07;3.80;99.90
37874;DHT22;23709;48.078;11.684;2024-03-07T03:27:39;3.80;99.90
37874;DHT22;23709;48.078;11.684;2024-03-07T03:30:12;3.70;99.90
37874;DHT22;23709;48.078;11.684;2024-03-07T03:32:47;3.70;99.90
37874;DHT22;23709;48.078;11.684;2024-03-07T03:35:19;3.70;99.90
37874;DHT22;23709;48.078;11.684;2024-03-07T03:37:52;3.70;99.90
37874;DHT22;23709;48.078;11.684;2024-03-07T03:40:24;3.70;99.90
37874;DHT22;23709;48.078;11.684;2024-03-07T03:42:56;3.80;99.90
37874;DHT22;23709;48.078;11.684;2024-03-07T03:45:28;3.80;99.90
37874;DHT22;23709;48.078;11.684;2024-03-07T03:48:01;3.90;99.90
37874;DHT22;23709;48.078;11.684;2024-03-07T03:50:34;3.90;99.90
37874;DHT22;23709;48.078;11.684;2024-03-07T03:53:06;3.90;99.90
37874;DHT22;23709;48.078;11.684;2024-03-07T03:55:40;3.90;99.90
37874;DHT22;23709;48.078;11.684;2024-03-07T03:58:12;3.90;99.90
37874;DHT22;23709;48.078;11.684;2024-03-07T04:00:44;3.90;99.90
37874;DHT22;23709;48.078;11.684;2024-03-07T04:03:16;3.90;99.90
37874;DHT22;23709;48.078;11.684;2024-03-07T04:05:48;3.90;99.90
37874;DHT22;23709;48.078;11.684;2024-03-07T04:08:21;3.90;99.90
37874;DHT22;23709;48.078;11.684;2024-03-07T04:10:53;3.80;99.90
37874;DHT22;23709;48.078;11.684;2024-03-07T04:13:26;3.90;99.90
37874;DHT22;23709;48.078;11.684;2024-03-07T04:15:59;3.90;99.90
37874;DHT22;23709;48.078;11.684;2024-03-07T04:18:31;4.00;99.90
37874;DHT22;23709;48.078;11.684;2024-03-07T04:21:04;4.00;99.90
37874;DHT22;23709;48.078;11.684;2024-03-07T04:23:40;4.10;99.90
37874;DHT22;23709;48.078;11.684;2024-03-07T04:26:12;4.20;99.90
37874;DHT22;23709;48.078;11.684;2024-03-07T04:28:46;4.20;99.90
37874;DHT22;23709;48.078;11.684;2024-03-07T04:31:18;4.20;99.90
37874;DHT22;23709;48.078;11.684;2024-03-07T04:33:50;4.30;99.90
37874;DHT22;23709;48.078;11.684;2024-03-07T04:36:23;4.30;99.90
37874;DHT22;23709;48.078;11.684;2024-03-07T04:38:55;4.30;99.90
37874;DHT22;23709;48.078;11.684;2024-03-07T04:41:27;4.30;99.90
37874;DHT22;23709;48.078;11.684;2024-03-07T04:44:08;4.30;99.90
37874;DHT22;23709;48.078;11.684;2024-03-07T04:46:41;4.30;99.90
37874;DHT22;23709;48.078;11.684;2024-03-07T04:49:15;4.30;99.90
37874;DHT22;23709;48.078;11.684;2024-03-07T04:51:47;4.40;99.90
37874;DHT22;23709;48.078;11.684;2024-03-07T04:54:21;4.40;99.90
37874;DHT22;23709;48.078;11.684;2024-03-07T04:56:54;4.40;99.90
37874;DHT22;23709;48.078;11.684;2024-03-07T04:59:26;4.40;99.90
37874;DHT22;23709;48.078;11.684;2024-03-07T05:01:59;4.30;99.90
37874;DHT22;23709;48.078;11.684;2024-03-07T05:04:31;4.30;99.90
37874;DHT22;23709;48.078;11.684;2024-03-07T05:07:05;4.20;99.90
37874;DHT22;23709;48.078;11.684;2024-03-07T05:09:37;4.20;99.90
37874;DHT22;23709;48.078;11.684;2024-03-07T05:12:09;4.30;99.90
37874;DHT22;23709;48.078;11.684;2024-03-07T05:14:43;4.30;99.90
37874;DHT22;23709;48.078;11.684;2024-03-07T05:17:20;4.30;99.90
37874;DHT22;23709;48.078;11.684;2024-03-07T05:19:54;4.30;99.90
37874;DHT22;23709;48.078;11.684;2024-03-07T05:22:33;4.40;99.90
37874;DHT22;23709;48.078;11.684;2024-03-07T05:25:08;4.30;99.90
37874;DHT22;23709;48.078;11.684;2024-03-07T05:27:43;4.30;99.90
37874;DHT22;23709;48.078;11.684;2024-03-07T05:30:15;4.30;99.90
37874;DHT22;23709;48.078;11.684;2024-03-07T05:32:49;4.30;99.90
37874;DHT22;23709;48.078;11.684;2024-03-07T05:35:21;4.30;99.90
37874;DHT22;23709;48.078;11.684;2024-03-07T05:37:54;4.30;99.90
37874;DHT22;23709;48.078;11.684;2024-03-07T05:40:28;4.30;99.90
37874;DHT22;23709;48.078;11.684;2024-03-07T05:43:00;4.30;99.90
37874;DHT22;23709;48.078;11.684;2024-03-07T05:45:33;4.30;99.90
37874;DHT22;23709;48.078;11.684;2024-03-07T05:48:14;4.40;99.90
37874;DHT22;23709;48.078;11.684;2024-03-07T05:50:50;4.30;99.90
37874;DHT22;23709;48.078;11.684;2024-03-07T05:53:22;4.30;99.90
37874;DHT22;23709;48.078;11.684;2024-03-07T05:55:54;4.30;99.90
37874;DHT22;23709;48.078;11.684;2024-03-07T05:58:27;4.40;99.90
37874;DHT22;23709;48.078;11.684;2024-03-07T06:00:59;4.30;99.90
37874;DHT22;23709;48.078;11.684;2024-03-07T06:03:31;4.30;99.90
37874;DHT22;23709;48.078;11.684;2024-03-07T06:06:04;4.30;99.90
37874;DHT22;23709;48.078;11.684;2024-03-07T06:08:40;4.30;99.90
37874;DHT22;23709;48.078;11.684;2024-03-07T06:11:14;4.30;99.90
37874;DHT22;23709;48.078;11.684;2024-03-07T06:13:52;4.30;99.90
37874;DHT22;23709;48.078;11.684;2024-03-07T06:16:24;4.20;99.90
37874;DHT22;23709;48.078;11.684;2024-03-07T06:18:57;4.20;99.90
37874;DHT22;23709;48.078;11.684;2024-03-07T06:21:30;4.20;99.90
37874;DHT22;23709;48.078;11.684;2024-03-07T06:24:05;4.20;99.90
37874;DHT22;23709;48.078;11.684;2024-03-07T06:26:40;4.10;99.90
37874;DHT22;23709;48.078;11.684;2024-03-07T06:29:15;4.00;99.90
37874;DHT22;23709;48.078;11.684;2024-03-07T06:31:48;4.00;99.90
37874;DHT22;23709;48.078;11.684;2024-03-07T06:34:22;4.10;99.90
37874;DHT22;23709;48.078;11.684;2024-03-07T06:36:54;4.10;99.90
37874;DHT22;23709;48.078;11.684;2024-03-07T06:39:27;4.20;99.90
37874;DHT22;23709;48.078;11.684;2024-03-07T06:42:00;4.30;99.90
37874;DHT22;23709;48.078;11.684;2024-03-07T06:44:32;4.30;99.90
37874;DHT22;23709;48.078;11.684;2024-03-07T06:47:05;4.30;99.90
37874;DHT22;23709;48.078;11.684;2024-03-07T06:49:38;4.30;99.90
37874;DHT22;23709;48.078;11.684;2024-03-07T06:52:12;4.20;99.90
37874;DHT22;23709;48.078;11.684;2024-03-07T06:54:44;4.20;99.90
37874;DHT22;23709;48.078;11.684;2024-03-07T06:57:17;4.20;99.90
37874;DHT22;23709;48.078;11.684;2024-03-07T06:59:50;4.20;99.90
37874;DHT22;23709;48.078;11.684;2024-03-07T07:02:23;4.20;99.90
37874;DHT22;23709;48.078;11.684;2024-03-07T07:04:55;4.10;99.90
37874;DHT22;23709;48.078;11.684;2024-03-07T07:07:28;4.10;99.90
37874;DHT22;23709;48.078;11.684;2024-03-07T07:10:00;4.20;99.90
37874;DHT22;23709;48.078;11.684;2024-03-07T07:12:33;4.20;99.90
37874;DHT22;23709;48.078;11.684;2024-03-07T07:15:05;4.20;99.90
37874;DHT22;23709;48.078;11.684;2024-03-07T07:17:39;4.20;99.90
37874;DHT22;23709;48.078;11.684;2024-03-07T07:20:12;4.30;99.90
37874;DHT22;23709;48.078;11.684;2024-03-07T07:22:47;4.30;99.90
37874;DHT22;23709;48.078;11.684;2024-03-07T07:25:20;4.30;99.90
37874;DHT22;23709;48.078;11.684;2024-03-07T07:27:54;4.30;99.90
37874;DHT22;23709;48.078;11.684;2024-03-07T07:30:26;4.30;99.90
37874;DHT22;23709;48.078;11.684;2024-03-07T07:33:00;4.30;99.90
37874;DHT22;23709;48.078;11.684;2024-03-07T07:35:32;4.30;99.90
37874;DHT22;23709;48.078;11.684;2024-03-07T07:38:07;4.30;99.90
37874;DHT22;23709;48.078;11.684;2024-03-07T07:40:42;4.30;99.90
37874;DHT22;23709;48.078;11.684;2024-03-07T07:43:17;4.30;99.90
37874;DHT22;23709;48.078;11.684;2024-03-07T07:46:04;4.30;99.90
37874;DHT22;23709;48.078;11.684;2024-03-07T07:48:36;4.40;99.90
37874;DHT22;23709;48.078;11.684;2024-03-07T07:51:11;4.40;99.90
37874;DHT22;23709;48.078;11.684;2024-03-07T07:53:45;4.50;99.90
37874;DHT22;23709;48.078;11.684;2024-03-07T07:56:17;4.50;99.90
37874;DHT22;23709;48.078;11.684;2024-03-07T07:58:50;4.60;99.90
37874;DHT22;23709;48.078;11.684;2024-03-07T08:01:23;4.60;99.90
37874;DHT22;23709;48.078;11.684;2024-03-07T08:03:55;4.60;99.90
37874;DHT22;23709;48.078;11.684;2024-03-07T08:06:29;4.60;99.90
37874;DHT22;23709;48.078;11.684;2024-03-07T08:09:02;4.60;99.90
37874;DHT22;23709;48.078;11.684;2024-03-07T08:11:35;4.60;99.90
37874;DHT22;23709;48.078;11.684;2024-03-07T08:14:09;4.60;99.90
37874;DHT22;23709;48.078;11.684;2024-03-07T08:16:41;4.70;99.90
37874;DHT22;23709;48.078;11.684;2024-03-07T08:19:14;4.70;99.90
37874;DHT22;23709;48.078;11.684;2024-03-07T08:21:46;4.70;99.90
37874;DHT22;23709;48.078;11.684;2024-03-07T08:24:18;4.70;99.90
37874;DHT22;23709;48.078;11.684;2024-03-07T08:26:51;4.80;99.90
37874;DHT22;23709;48.078;11.684;2024-03-07T08:29:23;4.80;99.90
37874;DHT22;23709;48.078;11.684;2024-03-07T08:31:56;4.70;99.90
37874;DHT22;23709;48.078;11.684;2024-03-07T08:34:28;4.80;99.90
37874;DHT22;23709;48.078;11.684;2024-03-07T08:37:01;4.80;99.90
37874;DHT22;23709;48.078;11.684;2024-03-07T08:39:34;4.80;99.90
37874;DHT22;23709;48.078;11.684;2024-03-07T08:42:06;4.80;99.90
37874;DHT22;23709;48.078;11.684;2024-03-07T08:44:39;4.90;99.90
37874;DHT22;23709;48.078;11.684;2024-03-07T08:47:11;4.90;99.90
37874;DHT22;23709;48.078;11.684;2024-03-07T08:49:44;4.90;99.90
37874;DHT22;23709;48.078;11.684;2024-03-07T08:52:16;4.90;99.90
37874;DHT22;23709;48.078;11.684;2024-03-07T08:54:49;5.00;99.90
37874;DHT22;23709;48.078;11.684;2024-03-07T08:57:21;5.00;99.90
37874;DHT22;23709;48.078;11.684;2024-03-07T08:59:54;4.90;99.90
37874;DHT22;23709;48.078;11.684;2024-03-07T09:02:27;5.00;99.90
37874;DHT22;23709;48.078;11.684;2024-03-07T09:05:00;5.00;99.90
37874;DHT22;23709;48.078;11.684;2024-03-07T09:07:32;5.10;99.90
37874;DHT22;23709;48.078;11.684;2024-03-07T09:10:05;5.10;99.90
37874;DHT22;23709;48.078;11.684;2024-03-07T09:12:40;5.10;99.90
37874;DHT22;23709;48.078;11.684;2024-03-07T09:15:12;5.10;99.90
37874;DHT22;23709;48.078;11.684;2024-03-07T09:17:45;5.10;99.90
37874;DHT22;23709;48.078;11.684;2024-03-07T09:20:19;5.10;99.90
37874;DHT22;23709;48.078;11.684;2024-03-07T09:22:52;5.10;99.90
37874;DHT22;23709;48.078;11.684;2024-03-07T09:25:27;5.10;99.90
37874;DHT22;23709;48.078;11.684;2024-03-07T09:28:05;5.10;99.90
37874;DHT22;23709;48.078;11.684;2024-03-07T09:30:39;5.10;99.90
37874;DHT22;23709;48.078;11.684;2024-03-07T09:33:12;5.10;99.90
37874;DHT22;23709;48.078;11.684;2024-03-07T09:35:48;5.10;99.90
37874;DHT22;23709;48.078;11.684;2024-03-07T09:38:21;5.20;99.90
37874;DHT22;23709;48.078;11.684;2024-03-07T09:40:54;5.10;99.90
37874;DHT22;23709;48.078;11.684;2024-03-07T09:43:28;5.20;99.90
37874;DHT22;23709;48.078;11.684;2024-03-07T09:46:03;5.20;99.90
37874;DHT22;23709;48.078;11.684;2024-03-07T09:48:36;5.20;99.90
37874;DHT22;23709;48.078;11.684;2024-03-07T09:51:10;5.20;99.90
37874;DHT22;23709;48.078;11.684;2024-03-07T09:53:44;5.20;99.90
37874;DHT22;23709;48.078;11.684;2024-03-07T09:56:22;5.30;99.90
37874;DHT22;23709;48.078;11.684;2024-03-07T09:58:57;5.40;99.90
37874;DHT22;23709;48.078;11.684;2024-03-07T10:01:33;5.50;99.90
37874;DHT22;23709;48.078;11.684;2024-03-07T10:04:08;5.60;99.90
37874;DHT22;23709;48.078;11.684;2024-03-07T10:06:44;5.70;99.90
37874;DHT22;23709;48.078;11.684;2024-03-07T10:09:17;5.70;99.90
37874;DHT22;23709;48.078;11.684;2024-03-07T10:11:57;5.70;99.90
37874;DHT22;23709;48.078;11.684;2024-03-07T10:14:32;5.70;99.90
37874;DHT22;23709;48.078;11.684;2024-03-07T10:17:05;5.80;99.90
37874;DHT22;23709;48.078;11.684;2024-03-07T10:19:37;5.80;99.90
37874;DHT22;23709;48.078;11.684;2024-03-07T10:22:10;5.90;99.90
37874;DHT22;23709;48.078;11.684;2024-03-07T10:24:53;5.80;99.90
37874;DHT22;23709;48.078;11.684;2024-03-07T10:27:29;5.80;99.90
37874;DHT22;23709;48.078;11.684;2024-03-07T10:30:01;5.90;99.90
37874;DHT22;23709;48.078;11.684;2024-03-07T10:32:34;5.90;99.90
37874;DHT22;23709;48.078;11.684;2024-03-07T10:35:07;5.90;99.90
37874;DHT22;23709;48.078;11.684;2024-03-07T10:37:40;6.00;99.90
37874;DHT22;23709;48.078;11.684;2024-03-07T10:40:12;6.10;99.90
37874;DHT22;23709;48.078;11.684;2024-03-07T10:42:48;6.20;99.90
37874;DHT22;23709;48.078;11.684;2024-03-07T10:45:28;6.30;99.90
37874;DHT22;23709;48.078;11.684;2024-03-07T10:48:03;6.30;99.90
37874;DHT22;23709;48.078;11.684;2024-03-07T10:53:26;6.30;99.90
37874;DHT22;23709;48.078;11.684;2024-03-07T10:56:11;6.20;99.90
37874;DHT22;23709;48.078;11.684;2024-03-07T11:01:20;6.10;99.90
37874;DHT22;23709;48.078;11.684;2024-03-07T11:03:56;6.20;99.90
37874;DHT22;23709;48.078;11.684;2024-03-07T11:06:29;6.20;99.90
37874;DHT22;23709;48.078;11.684;2024-03-07T11:09:03;6.20;99.90
37874;DHT22;23709;48.078;11.684;2024-03-07T11:11:43;6.20;99.90
37874;DHT22;23709;48.078;11.684;2024-03-07T11:14:17;6.20;99.90
37874;DHT22;23709;48.078;11.684;2024-03-07T11:16:50;6.20;99.90
37874;DHT22;23709;48.078;11.684;2024-03-07T11:19:31;6.30;99.90
37874;DHT22;23709;48.078;11.684;2024-03-07T11:22:04;6.60;99.90
37874;DHT22;23709;48.078;11.684;2024-03-07T11:27:55;6.90;99.90
37874;DHT22;23709;48.078;11.684;2024-03-07T11:30:28;7.50;99.90
37874;DHT22;23709;48.078;11.684;2024-03-07T11:33:02;7.40;99.90
37874;DHT22;23709;48.078;11.684;2024-03-07T11:35:36;7.40;99.90
37874;DHT22;23709;48.078;11.684;2024-03-07T11:38:08;7.20;99.90
37874;DHT22;23709;48.078;11.684;2024-03-07T11:40:43;7.10;99.90
37874;DHT22;23709;48.078;11.684;2024-03-07T11:43:15;7.10;99.90
37874;DHT22;23709;48.078;11.684;2024-03-07T11:45:47;7.10;99.90
37874;DHT22;23709;48.078;11.684;2024-03-07T11:48:24;7.00;99.90
37874;DHT22;23709;48.078;11.684;2024-03-07T11:50:57;7.10;99.90
37874;DHT22;23709;48.078;11.684;2024-03-07T12:04:01;7.10;99.90
37874;DHT22;23709;48.078;11.684;2024-03-07T12:06:38;8.50;99.90
37874;DHT22;23709;48.078;11.684;2024-03-07T12:09:11;8.80;99.90
37874;DHT22;23709;48.078;11.684;2024-03-07T12:11:55;8.70;99.90
37874;DHT22;23709;48.078;11.684;2024-03-07T12:14:32;9.00;99.90
37874;DHT22;23709;48.078;11.684;2024-03-07T12:17:06;9.00;99.90
37874;DHT22;23709;48.078;11.684;2024-03-07T12:19:39;8.80;99.90
37874;DHT22;23709;48.078;11.684;2024-03-07T12:22:11;8.70;99.90
37874;DHT22;23709;48.078;11.684;2024-03-07T12:24:44;8.50;99.90
37874;DHT22;23709;48.078;11.684;2024-03-07T12:27:18;8.40;99.90
37874;DHT22;23709;48.078;11.684;2024-03-07T12:29:50;8.20;99.90
37874;DHT22;23709;48.078;11.684;2024-03-07T12:32:25;8.10;99.90
37874;DHT22;23709;48.078;11.684;2024-03-07T12:34:58;7.80;99.90
37874;DHT22;23709;48.078;11.684;2024-03-07T12:37:35;7.60;99.90
37874;DHT22;23709;48.078;11.684;2024-03-07T12:40:12;7.40;99.90
37874;DHT22;23709;48.078;11.684;2024-03-07T12:42:52;7.30;99.90
37874;DHT22;23709;48.078;11.684;2024-03-07T12:45:28;7.20;99.90
37874;DHT22;23709;48.078;11.684;2024-03-07T12:48:01;7.20;99.90
37874;DHT22;23709;48.078;11.684;2024-03-07T12:50:37;7.20;99.90
37874;DHT22;23709;48.078;11.684;2024-03-07T12:53:10;7.20;99.90
37874;DHT22;23709;48.078;11.684;2024-03-07T12:55:44;7.20;99.90
37874;DHT22;23709;48.078;11.684;2024-03-07T12:58:17;7.10;99.90
37874;DHT22;23709;48.078;11.684;2024-03-07T13:00:50;7.10;99.90
37874;DHT22;23709;48.078;11.684;2024-03-07T13:03:24;7.10;99.90
37874;DHT22;23709;48.078;11.684;2024-03-07T13:06:03;7.10;99.90
37874;DHT22;23709;48.078;11.684;2024-03-07T13:08:37;7.20;99.90
37874;DHT22;23709;48.078;11.684;2024-03-07T13:11:10;7.10;99.90
37874;DHT22;23709;48.078;11.684;2024-03-07T13:13:44;7.10;99.90
37874;DHT22;23709;48.078;11.684;2024-03-07T13:16:16;7.10;99.90
37874;DHT22;23709;48.078;11.684;2024-03-07T13:18:48;7.10;99.90
37874;DHT22;23709;48.078;11.684;2024-03-07T13:21:21;7.10;99.90
37874;DHT22;23709;48.078;11.684;2024-03-07T13:23:53;7.10;99.90
37874;DHT22;23709;48.078;11.684;2024-03-07T13:26:28;7.10;99.90
37874;DHT22;23709;48.078;11.684;2024-03-07T13:29:02;7.10;99.90
37874;DHT22;23709;48.078;11.684;2024-03-07T13:31:35;7.20;99.90
37874;DHT22;23709;48.078;11.684;2024-03-07T13:34:07;7.20;99.90
37874;DHT22;23709;48.078;11.684;2024-03-07T13:36:45;7.20;99.90
37874;DHT22;23709;48.078;11.684;2024-03-07T13:39:17;7.20;99.90
37874;DHT22;23709;48.078;11.684;2024-03-07T13:41:50;7.20;99.90
37874;DHT22;23709;48.078;11.684;2024-03-07T13:44:22;7.20;99.90
37874;DHT22;23709;48.078;11.684;2024-03-07T13:46:55;7.10;99.90
37874;DHT22;23709;48.078;11.684;2024-03-07T13:49:27;7.20;99.90
37874;DHT22;23709;48.078;11.684;2024-03-07T13:52:00;7.20;99.90
37874;DHT22;23709;48.078;11.684;2024-03-07T13:54:35;7.10;99.90
37874;DHT22;23709;48.078;11.684;2024-03-07T14:03:40;7.00;99.90
37874;DHT22;23709;48.078;11.684;2024-03-07T14:27:41;6.90;99.90
37874;DHT22;23709;48.078;11.684;2024-03-07T14:30:36;6.90;99.90
37874;DHT22;23709;48.078;11.684;2024-03-07T14:33:13;6.90;99.90
37874;DHT22;23709;48.078;11.684;2024-03-07T14:36:12;6.90;99.90
37874;DHT22;23709;48.078;11.684;2024-03-07T14:38:52;6.90;99.90
37874;DHT22;23709;48.078;11.684;2024-03-07T14:44:19;6.90;99.90
37874;DHT22;23709;48.078;11.684;2024-03-07T14:47:02;6.90;99.90
37874;DHT22;23709;48.078;11.684;2024-03-07T14:49:38;6.90;99.90
37874;DHT22;23709;48.078;11.684;2024-03-07T14:52:11;6.90;99.90
37874;DHT22;23709;48.078;11.684;2024-03-07T14:54:44;6.90;99.90
37874;DHT22;23709;48.078;11.684;2024-03-07T14:57:17;6.80;99.90
37874;DHT22;23709;48.078;11.684;2024-03-07T14:59:53;6.80;99.90
37874;DHT22;23709;48.078;11.684;2024-03-07T15:02:26;6.70;99.90
37874;DHT22;23709;48.078;11.684;2024-03-07T15:04:59;6.60;99.90
37874;DHT22;23709;48.078;11.684;2024-03-07T15:07:33;6.60;99.90
37874;DHT22;23709;48.078;11.684;2024-03-07T15:10:10;6.60;99.90
37874;DHT22;23709;48.078;11.684;2024-03-07T15:12:50;6.60;99.90
37874;DHT22;23709;48.078;11.684;2024-03-07T15:15:24;6.60;99.90
37874;DHT22;23709;48.078;11.684;2024-03-07T15:18:01;6.70;99.90
37874;DHT22;23709;48.078;11.684;2024-03-07T15:20:33;6.70;99.90
37874;DHT22;23709;48.078;11.684;2024-03-07T15:23:06;6.70;99.90
37874;DHT22;23709;48.078;11.684;2024-03-07T15:25:38;6.70;99.90
37874;DHT22;23709;48.078;11.684;2024-03-07T15:28:11;6.70;99.90
37874;DHT22;23709;48.078;11.684;2024-03-07T15:30:43;6.70;99.90
37874;DHT22;23709;48.078;11.684;2024-03-07T15:33:16;6.70;99.90
37874;DHT22;23709;48.078;11.684;2024-03-07T15:35:48;6.80;99.90
37874;DHT22;23709;48.078;11.684;2024-03-07T15:38:22;6.80;99.90
37874;DHT22;23709;48.078;11.684;2024-03-07T15:41:02;6.80;99.90
37874;DHT22;23709;48.078;11.684;2024-03-07T15:43:34;6.80;99.90
37874;DHT22;23709;48.078;11.684;2024-03-07T15:46:07;6.80;99.90
37874;DHT22;23709;48.078;11.684;2024-03-07T15:48:40;6.80;99.90
37874;DHT22;23709;48.078;11.684;2024-03-07T15:51:13;6.70;99.90
37874;DHT22;23709;48.078;11.684;2024-03-07T15:53:46;6.70;99.90
37874;DHT22;23709;48.078;11.684;2024-03-07T15:56:19;6.60;99.90
37874;DHT22;23709;48.078;11.684;2024-03-07T15:58:51;6.60;99.90
37874;DHT22;23709;48.078;11.684;2024-03-07T16:01:24;6.50;99.90
37874;DHT22;23709;48.078;11.684;2024-03-07T16:03:56;6.50;99.90
37874;DHT22;23709;48.078;11.684;2024-03-07T16:06:29;6.50;99.90
37874;DHT22;23709;48.078;11.684;2024-03-07T16:09:02;6.40;99.90
37874;DHT22;23709;48.078;11.684;2024-03-07T16:11:34;6.40;99.90
37874;DHT22;23709;48.078;11.684;2024-03-07T16:14:07;6.40;99.90
37874;DHT22;23709;48.078;11.684;2024-03-07T16:16:40;6.30;99.90
37874;DHT22;23709;48.078;11.684;2024-03-07T16:19:13;6.30;99.90
37874;DHT22;23709;48.078;11.684;2024-03-07T16:21:49;6.30;99.90
37874;DHT22;23709;48.078;11.684;2024-03-07T16:24:21;6.20;99.90
37874;DHT22;23709;48.078;11.684;2024-03-07T16:26:53;6.20;99.90
37874;DHT22;23709;48.078;11.684;2024-03-07T16:29:25;6.20;99.90
37874;DHT22;23709;48.078;11.684;2024-03-07T16:31:58;6.20;99.90
37874;DHT22;23709;48.078;11.684;2024-03-07T16:34:31;6.20;99.90
37874;DHT22;23709;48.078;11.684;2024-03-07T16:37:03;6.10;99.90
37874;DHT22;23709;48.078;11.684;2024-03-07T16:39:36;6.10;99.90
37874;DHT22;23709;48.078;11.684;2024-03-07T16:42:09;6.10;99.90
37874;DHT22;23709;48.078;11.684;2024-03-07T16:44:47;6.10;99.90
37874;DHT22;23709;48.078;11.684;2024-03-07T16:47:19;6.00;99.90
37874;DHT22;23709;48.078;11.684;2024-03-07T16:49:56;6.00;99.90
37874;DHT22;23709;48.078;11.684;2024-03-07T16:52:29;6.00;99.90
37874;DHT22;23709;48.078;11.684;2024-03-07T16:55:02;6.00;99.90
37874;DHT22;23709;48.078;11.684;2024-03-07T16:57:42;6.00;99.90
37874;DHT22;23709;48.078;11.684;2024-03-07T17:00:16;5.90;99.90